sensor_id;sensor_type;location;lat;lon;timestamp;temperature;humidity
12887;DHT22;6511;49.746;6.094;2022-09-17T00:01:05;7.90;99.90
12887;DHT22;6511;49.746;6.094;2022-09-17T00:03:31;7.90;99.90
12887;DHT22;6511;49.746;6.094;2022-09-17T00:06:05;7.80;99.90
12887;DHT22;6511;49.746;6.094;2022-09-17T00:08:31;7.80;99.90
12887;DHT22;6511;49.746;6.094;2022-09-17T00:10:58;7.80;99.90
12887;DHT22;6511;49.746;6.094;2022-09-17T00:13:30;7.80;99.90
12887;DHT22;6511;49.746;6.094;2022-09-17T00:15:55;7.90;99.90
12887;DHT22;6511;49.746;6.094;2022-09-17T00:18:21;7.90;99.90
12887;DHT22;6511;49.746;6.094;2022-09-17T00:20:46;7.90;99.90
12887;DHT22;6511;49.746;6.094;2022-09-17T00:23:13;7.90;99.90
12887;DHT22;6511;49.746;6.094;2022-09-17T00:25:41;7.80;99.90
12887;DHT22;6511;49.746;6.094;2022-09-17T00:28:07;7.90;99.90
12887;DHT22;6511;49.746;6.094;2022-09-17T00:30:33;7.90;99.90
12887;DHT22;6511;49.746;6.094;2022-09-17T00:32:59;7.90;99.90
12887;DHT22;6511;49.746;6.094;2022-09-17T00:35:25;7.80;99.90
12887;DHT22;6511;49.746;6.094;2022-09-17T00:37:51;7.70;99.90
12887;DHT22;6511;49.746;6.094;2022-09-17T00:40:18;7.70;99.90
12887;DHT22;6511;49.746;6.094;2022-09-17T00:42:44;7.80;99.90
12887;DHT22;6511;49.746;6.094;2022-09-17T00:45:11;7.70;99.90
12887;DHT22;6511;49.746;6.094;2022-09-17T00:47:40;7.70;99.90
12887;DHT22;6511;49.746;6.094;2022-09-17T00:50:16;7.70;99.90
12887;DHT22;6511;49.746;6.094;2022-09-17T00:52:45;7.70;99.90
12887;DHT22;6511;49.746;6.094;2022-09-17T00:55:15;7.60;99.90
12887;DHT22;6511;49.746;6.094;2022-09-17T00:57:43;7.40;99.90
12887;DHT22;6511;49.746;6.094;2022-09-17T01:00:12;7.50;99.90
12887;DHT22;6511;49.746;6.094;2022-09-17T01:02:38;7.40;99.90
12887;DHT22;6511;49.746;6.094;2022-09-17T01:05:05;7.40;99.90
12887;DHT22;6511;49.746;6.094;2022-09-17T01:07:52;7.50;99.90
12887;DHT22;6511;49.746;6.094;2022-09-17T01:33:18;7.40;99.90
12887;DHT22;6511;49.746;6.094;2022-09-17T01:38:31;7.30;99.90
12887;DHT22;6511;49.746;6.094;2022-09-17T01:41:28;7.30;99.90
12887;DHT22;6511;49.746;6.094;2022-09-17T01:44:25;7.20;99.90
12887;DHT22;6511;49.746;6.094;2022-09-17T01:47:02;7.20;99.90
12887;DHT22;6511;49.746;6.094;2022-09-17T01:49:30;7.20;99.90
12887;DHT22;6511;49.746;6.094;2022-09-17T01:51:57;7.20;99.90
12887;DHT22;6511;49.746;6.094;2022-09-17T01:54:29;7.20;99.90
12887;DHT22;6511;49.746;6.094;2022-09-17T01:57:16;7.20;99.90
12887;DHT22;6511;49.746;6.094;2022-09-17T01:59:58;7.20;99.90
12887;DHT22;6511;49.746;6.094;2022-09-17T02:02:32;7.10;99.90
12887;DHT22;6511;49.746;6.094;2022-09-17T02:05:07;7.10;99.90
12887;DHT22;6511;49.746;6.094;2022-09-17T02:07:39;7.10;99.90
12887;DHT22;6511;49.746;6.094;2022-09-17T02:10:11;7.20;99.90
12887;DHT22;6511;49.746;6.094;2022-09-17T02:12:43;7.20;99.90
12887;DHT22;6511;49.746;6.094;2022-09-17T02:15:15;7.20;99.90
12887;DHT22;6511;49.746;6.094;2022-09-17T02:17:59;7.10;99.90
12887;DHT22;6511;49.746;6.094;2022-09-17T02:20:38;7.00;99.90
12887;DHT22;6511;49.746;6.094;2022-09-17T02:23:11;7.00;99.90
12887;DHT22;6511;49.746;6.094;2022-09-17T02:25:43;7.10;99.90
12887;DHT22;6511;49.746;6.094;2022-09-17T02:31:02;7.20;99.90
12887;DHT22;6511;49.746;6.094;2022-09-17T02:33:29;7.20;99.90
12887;DHT22;6511;49.746;6.094;2022-09-17T02:35:56;7.20;99.90
12887;DHT22;6511;49.746;6.094;2022-09-17T02:38:24;7.20;99.90
12887;DHT22;6511;49.746;6.094;2022-09-17T02:40:58;7.30;99.90
12887;DHT22;6511;49.746;6.094;2022-09-17T02:43:39;7.30;99.90
12887;DHT22;6511;49.746;6.094;2022-09-17T02:49:52;7.30;99.90
12887;DHT22;6511;49.746;6.094;2022-09-17T02:55:18;7.40;99.90
12887;DHT22;6511;49.746;6.094;2022-09-17T02:57:59;7.40;99.90
12887;DHT22;6511;49.746;6.094;2022-09-17T03:00:27;7.60;99.90
12887;DHT22;6511;49.746;6.094;2022-09-17T03:03:20;7.60;99.90
12887;DHT22;6511;49.746;6.094;2022-09-17T03:05:45;7.70;99.90
12887;DHT22;6511;49.746;6.094;2022-09-17T03:08:15;7.60;99.90
12887;DHT22;6511;49.746;6.094;2022-09-17T03:10:43;7.60;99.90
12887;DHT22;6511;49.746;6.094;2022-09-17T03:13:09;7.50;99.90
12887;DHT22;6511;49.746;6.094;2022-09-17T03:15:34;7.60;99.90
12887;DHT22;6511;49.746;6.094;2022-09-17T03:18:00;7.90;99.90
12887;DHT22;6511;49.746;6.094;2022-09-17T03:20:26;8.30;99.90
12887;DHT22;6511;49.746;6.094;2022-09-17T03:22:52;8.50;99.90
12887;DHT22;6511;49.746;6.094;2022-09-17T03:25:17;8.60;99.90
12887;DHT22;6511;49.746;6.094;2022-09-17T03:27:43;8.70;99.90
12887;DHT22;6511;49.746;6.094;2022-09-17T03:30:09;8.80;99.90
12887;DHT22;6511;49.746;6.094;2022-09-17T03:32:35;8.80;99.90
12887;DHT22;6511;49.746;6.094;2022-09-17T03:35:00;8.80;99.90
12887;DHT22;6511;49.746;6.094;2022-09-17T03:37:26;9.00;99.90
12887;DHT22;6511;49.746;6.094;2022-09-17T03:39:52;9.00;99.90
12887;DHT22;6511;49.746;6.094;2022-09-17T03:42:17;9.00;99.90
12887;DHT22;6511;49.746;6.094;2022-09-17T03:44:43;9.00;99.90
12887;DHT22;6511;49.746;6.094;2022-09-17T03:47:09;9.00;99.90
12887;DHT22;6511;49.746;6.094;2022-09-17T03:49:34;9.10;99.90
12887;DHT22;6511;49.746;6.094;2022-09-17T03:52:00;9.10;99.90
12887;DHT22;6511;49.746;6.094;2022-09-17T03:54:26;9.10;99.90
12887;DHT22;6511;49.746;6.094;2022-09-17T03:56:51;9.20;99.90
12887;DHT22;6511;49.746;6.094;2022-09-17T03:59:17;9.20;99.90
12887;DHT22;6511;49.746;6.094;2022-09-17T04:01:42;9.20;99.90
12887;DHT22;6511;49.746;6.094;2022-09-17T04:04:08;9.20;99.90
12887;DHT22;6511;49.746;6.094;2022-09-17T04:06:34;9.20;99.90
12887;DHT22;6511;49.746;6.094;2022-09-17T04:08:59;9.30;99.90
12887;DHT22;6511;49.746;6.094;2022-09-17T04:11:26;9.30;99.90
12887;DHT22;6511;49.746;6.094;2022-09-17T04:13:51;9.40;99.90
12887;DHT22;6511;49.746;6.094;2022-09-17T04:16:17;9.40;99.90
12887;DHT22;6511;49.746;6.094;2022-09-17T04:18:43;9.40;99.90
12887;DHT22;6511;49.746;6.094;2022-09-17T04:21:08;9.40;99.90
12887;DHT22;6511;49.746;6.094;2022-09-17T04:23:34;9.40;99.90
12887;DHT22;6511;49.746;6.094;2022-09-17T04:26:00;9.50;99.90
12887;DHT22;6511;49.746;6.094;2022-09-17T04:28:25;9.50;99.90
12887;DHT22;6511;49.746;6.094;2022-09-17T04:30:51;9.50;99.90
12887;DHT22;6511;49.746;6.094;2022-09-17T04:33:17;9.50;99.90
12887;DHT22;6511;49.746;6.094;2022-09-17T04:35:42;9.50;99.90
12887;DHT22;6511;49.746;6.094;2022-09-17T04:38:08;9.50;99.90
12887;DHT22;6511;49.746;6.094;2022-09-17T04:40:34;9.50;99.90
12887;DHT22;6511;49.746;6.094;2022-09-17T04:43:00;9.60;99.90
12887;DHT22;6511;49.746;6.094;2022-09-17T04:45:28;9.60;99.90
12887;DHT22;6511;49.746;6.094;2022-09-17T04:47:54;9.60;99.90
12887;DHT22;6511;49.746;6.094;2022-09-17T04:50:21;9.60;99.90
12887;DHT22;6511;49.746;6.094;2022-09-17T04:52:47;9.60;99.90
12887;DHT22;6511;49.746;6.094;2022-09-17T04:55:14;9.60;99.90
12887;DHT22;6511;49.746;6.094;2022-09-17T04:57:50;9.60;99.90
12887;DHT22;6511;49.746;6.094;2022-09-17T05:00:17;9.60;99.90
12887;DHT22;6511;49.746;6.094;2022-09-17T05:02:45;9.60;99.90
12887;DHT22;6511;49.746;6.094;2022-09-17T05:05:11;9.50;99.90
12887;DHT22;6511;49.746;6.094;2022-09-17T05:07:40;9.60;99.90
12887;DHT22;6511;49.746;6.094;2022-09-17T05:10:09;9.60;99.90
12887;DHT22;6511;49.746;6.094;2022-09-17T05:12:35;9.50;99.90
12887;DHT22;6511;49.746;6.094;2022-09-17T05:15:01;9.50;99.90
12887;DHT22;6511;49.746;6.094;2022-09-17T05:17:27;9.50;99.90
12887;DHT22;6511;49.746;6.094;2022-09-17T05:19:53;9.50;99.90
12887;DHT22;6511;49.746;6.094;2022-09-17T05:22:19;9.50;99.90
12887;DHT22;6511;49.746;6.094;2022-09-17T05:24:45;9.50;99.90
12887;DHT22;6511;49.746;6.094;2022-09-17T05:27:11;9.50;99.90
12887;DHT22;6511;49.746;6.094;2022-09-17T05:29:37;9.50;99.90
12887;DHT22;6511;49.746;6.094;2022-09-17T05:32:04;9.40;99.90
12887;DHT22;6511;49.746;6.094;2022-09-17T05:34:29;9.40;99.90
12887;DHT22;6511;49.746;6.094;2022-09-17T05:36:55;9.40;99.90
12887;DHT22;6511;49.746;6.094;2022-09-17T05:39:21;9.30;99.90
12887;DHT22;6511;49.746;6.094;2022-09-17T05:41:53;9.30;99.90
12887;DHT22;6511;49.746;6.094;2022-09-17T05:44:19;9.30;99.90
12887;DHT22;6511;49.746;6.094;2022-09-17T05:46:46;9.20;99.90
12887;DHT22;6511;49.746;6.094;2022-09-17T05:49:13;9.20;99.90
12887;DHT22;6511;49.746;6.094;2022-09-17T05:51:40;9.20;99.90
12887;DHT22;6511;49.746;6.094;2022-09-17T05:54:05;9.10;99.90
12887;DHT22;6511;49.746;6.094;2022-09-17T05:56:31;9.10;99.90
12887;DHT22;6511;49.746;6.094;2022-09-17T05:58:57;9.10;99.90
12887;DHT22;6511;49.746;6.094;2022-09-17T06:01:22;9.30;99.90
12887;DHT22;6511;49.746;6.094;2022-09-17T06:03:48;9.30;99.90
12887;DHT22;6511;49.746;6.094;2022-09-17T06:06:14;9.30;99.90
12887;DHT22;6511;49.746;6.094;2022-09-17T06:08:40;9.30;99.90
12887;DHT22;6511;49.746;6.094;2022-09-17T06:11:06;9.30;99.90
12887;DHT22;6511;49.746;6.094;2022-09-17T06:13:33;9.30;99.90
12887;DHT22;6511;49.746;6.094;2022-09-17T06:15:59;9.40;99.90
12887;DHT22;6511;49.746;6.094;2022-09-17T06:18:26;9.50;99.90
12887;DHT22;6511;49.746;6.094;2022-09-17T06:21:01;9.70;99.90
12887;DHT22;6511;49.746;6.094;2022-09-17T06:23:30;9.80;99.90
12887;DHT22;6511;49.746;6.094;2022-09-17T06:26:00;9.70;99.90
12887;DHT22;6511;49.746;6.094;2022-09-17T06:28:26;9.70;99.90
12887;DHT22;6511;49.746;6.094;2022-09-17T06:30:52;9.70;99.90
12887;DHT22;6511;49.746;6.094;2022-09-17T06:33:20;9.60;99.90
12887;DHT22;6511;49.746;6.094;2022-09-17T06:35:46;9.70;99.90
12887;DHT22;6511;49.746;6.094;2022-09-17T06:38:12;9.70;99.90
12887;DHT22;6511;49.746;6.094;2022-09-17T06:40:38;9.70;99.90
12887;DHT22;6511;49.746;6.094;2022-09-17T06:43:03;9.70;99.90
12887;DHT22;6511;49.746;6.094;2022-09-17T06:45:29;9.80;99.90
12887;DHT22;6511;49.746;6.094;2022-09-17T06:47:55;9.80;99.90
12887;DHT22;6511;49.746;6.094;2022-09-17T06:50:21;9.90;99.90
12887;DHT22;6511;49.746;6.094;2022-09-17T06:52:53;9.90;99.90
12887;DHT22;6511;49.746;6.094;2022-09-17T06:55:19;10.00;99.90
12887;DHT22;6511;49.746;6.094;2022-09-17T06:57:45;10.00;99.90
12887;DHT22;6511;49.746;6.094;2022-09-17T07:00:12;10.10;99.90
12887;DHT22;6511;49.746;6.094;2022-09-17T07:02:38;10.10;99.90
12887;DHT22;6511;49.746;6.094;2022-09-17T07:05:04;10.20;99.90
12887;DHT22;6511;49.746;6.094;2022-09-17T07:07:30;10.20;99.90
12887;DHT22;6511;49.746;6.094;2022-09-17T07:09:56;10.40;99.90
12887;DHT22;6511;49.746;6.094;2022-09-17T07:12:21;10.50;99.90
12887;DHT22;6511;49.746;6.094;2022-09-17T07:14:47;10.60;99.90
12887;DHT22;6511;49.746;6.094;2022-09-17T07:17:13;10.70;99.90
12887;DHT22;6511;49.746;6.094;2022-09-17T07:19:39;10.60;99.90
12887;DHT22;6511;49.746;6.094;2022-09-17T07:22:05;10.80;99.90
12887;DHT22;6511;49.746;6.094;2022-09-17T07:24:31;10.90;99.90
12887;DHT22;6511;49.746;6.094;2022-09-17T07:26:57;11.10;99.90
12887;DHT22;6511;49.746;6.094;2022-09-17T07:29:23;11.10;99.90
12887;DHT22;6511;49.746;6.094;2022-09-17T07:31:54;11.20;99.90
12887;DHT22;6511;49.746;6.094;2022-09-17T07:34:20;11.30;99.90
12887;DHT22;6511;49.746;6.094;2022-09-17T07:36:46;11.30;99.90
12887;DHT22;6511;49.746;6.094;2022-09-17T07:39:12;11.20;99.90
12887;DHT22;6511;49.746;6.094;2022-09-17T07:41:38;11.20;99.90
12887;DHT22;6511;49.746;6.094;2022-09-17T07:44:04;11.20;99.90
12887;DHT22;6511;49.746;6.094;2022-09-17T07:46:34;11.20;99.90
12887;DHT22;6511;49.746;6.094;2022-09-17T07:49:00;11.10;99.90
12887;DHT22;6511;49.746;6.094;2022-09-17T07:51:27;11.10;99.90
12887;DHT22;6511;49.746;6.094;2022-09-17T07:53:57;11.10;99.90
12887;DHT22;6511;49.746;6.094;2022-09-17T07:56:24;11.20;99.90
12887;DHT22;6511;49.746;6.094;2022-09-17T07:58:52;11.30;99.90
12887;DHT22;6511;49.746;6.094;2022-09-17T08:01:18;11.20;99.90
12887;DHT22;6511;49.746;6.094;2022-09-17T08:03:48;11.40;99.90
12887;DHT22;6511;49.746;6.094;2022-09-17T08:06:17;11.40;99.90
12887;DHT22;6511;49.746;6.094;2022-09-17T08:08:44;11.40;99.90
12887;DHT22;6511;49.746;6.094;2022-09-17T08:11:16;11.30;99.90
12887;DHT22;6511;49.746;6.094;2022-09-17T08:13:42;11.30;99.90
12887;DHT22;6511;49.746;6.094;2022-09-17T08:16:10;11.30;99.90
12887;DHT22;6511;49.746;6.094;2022-09-17T08:18:40;11.20;99.90
12887;DHT22;6511;49.746;6.094;2022-09-17T08:21:07;11.20;99.90
12887;DHT22;6511;49.746;6.094;2022-09-17T08:23:35;11.20;99.90
12887;DHT22;6511;49.746;6.094;2022-09-17T08:26:01;11.30;99.90
12887;DHT22;6511;49.746;6.094;2022-09-17T08:28:29;11.30;99.90
12887;DHT22;6511;49.746;6.094;2022-09-17T08:31:01;11.40;99.90
12887;DHT22;6511;49.746;6.094;2022-09-17T08:33:30;11.60;99.90
12887;DHT22;6511;49.746;6.094;2022-09-17T08:35:56;11.70;99.90
12887;DHT22;6511;49.746;6.094;2022-09-17T08:38:26;11.80;99.90
12887;DHT22;6511;49.746;6.094;2022-09-17T08:46:14;12.20;99.90
12887;DHT22;6511;49.746;6.094;2022-09-17T08:51:34;12.30;99.90
12887;DHT22;6511;49.746;6.094;2022-09-17T08:54:15;12.50;99.90
12887;DHT22;6511;49.746;6.094;2022-09-17T08:56:44;12.60;99.90
12887;DHT22;6511;49.746;6.094;2022-09-17T09:01:58;12.50;99.90
12887;DHT22;6511;49.746;6.094;2022-09-17T09:07:16;12.50;99.90
12887;DHT22;6511;49.746;6.094;2022-09-17T09:09:57;12.90;99.90
12887;DHT22;6511;49.746;6.094;2022-09-17T09:12:32;12.80;99.90
12887;DHT22;6511;49.746;6.094;2022-09-17T09:17:45;12.20;99.90
12887;DHT22;6511;49.746;6.094;2022-09-17T09:23:16;12.30;99.90
12887;DHT22;6511;49.746;6.094;2022-09-17T09:25:52;12.10;99.90
12887;DHT22;6511;49.746;6.094;2022-09-17T09:28:37;12.50;99.90
12887;DHT22;6511;49.746;6.094;2022-09-17T09:34:11;12.80;99.90
12887;DHT22;6511;49.746;6.094;2022-09-17T09:36:38;12.70;99.90
12887;DHT22;6511;49.746;6.094;2022-09-17T09:39:20;12.80;99.90
12887;DHT22;6511;49.746;6.094;2022-09-17T09:44:31;13.20;99.90
12887;DHT22;6511;49.746;6.094;2022-09-17T09:50:31;13.50;99.90
12887;DHT22;6511;49.746;6.094;2022-09-17T10:00:57;13.10;99.90
12887;DHT22;6511;49.746;6.094;2022-09-17T10:03:27;13.20;99.90
12887;DHT22;6511;49.746;6.094;2022-09-17T10:06:00;13.20;99.90
12887;DHT22;6511;49.746;6.094;2022-09-17T10:08:28;13.10;99.90
12887;DHT22;6511;49.746;6.094;2022-09-17T10:10:55;12.90;99.90
12887;DHT22;6511;49.746;6.094;2022-09-17T10:13:22;13.00;99.90
12887;DHT22;6511;49.746;6.094;2022-09-17T10:15:47;13.00;99.90
12887;DHT22;6511;49.746;6.094;2022-09-17T10:18:19;12.80;99.90
12887;DHT22;6511;49.746;6.094;2022-09-17T10:23:14;12.60;99.90
12887;DHT22;6511;49.746;6.094;2022-09-17T10:25:43;12.60;99.90
12887;DHT22;6511;49.746;6.094;2022-09-17T10:31:17;12.60;99.90
12887;DHT22;6511;49.746;6.094;2022-09-17T10:34:00;12.70;99.90
12887;DHT22;6511;49.746;6.094;2022-09-17T10:36:42;13.00;99.90
12887;DHT22;6511;49.746;6.094;2022-09-17T10:41:57;13.00;99.90
12887;DHT22;6511;49.746;6.094;2022-09-17T10:44:25;13.10;99.90
12887;DHT22;6511;49.746;6.094;2022-09-17T10:46:51;12.80;99.90
12887;DHT22;6511;49.746;6.094;2022-09-17T10:49:42;13.20;99.90
12887;DHT22;6511;49.746;6.094;2022-09-17T10:52:31;13.40;99.90
12887;DHT22;6511;49.746;6.094;2022-09-17T11:14:39;13.00;99.90
12887;DHT22;6511;49.746;6.094;2022-09-17T11:26:03;13.20;99.90
12887;DHT22;6511;49.746;6.094;2022-09-17T11:33:37;13.60;99.90
12887;DHT22;6511;49.746;6.094;2022-09-17T11:36:30;13.30;99.90
12887;DHT22;6511;49.746;6.094;2022-09-17T11:39:09;13.60;99.90
12887;DHT22;6511;49.746;6.094;2022-09-17T11:41:42;13.30;99.90
12887;DHT22;6511;49.746;6.094;2022-09-17T11:44:23;13.30;99.90
12887;DHT22;6511;49.746;6.094;2022-09-17T11:51:55;13.40;99.90
12887;DHT22;6511;49.746;6.094;2022-09-17T11:57:33;13.50;99.90
12887;DHT22;6511;49.746;6.094;2022-09-17T12:08:20;13.70;99.90
12887;DHT22;6511;49.746;6.094;2022-09-17T12:11:17;14.10;99.90
12887;DHT22;6511;49.746;6.094;2022-09-17T12:14:16;14.20;99.90
12887;DHT22;6511;49.746;6.094;2022-09-17T12:16:45;13.90;99.90
12887;DHT22;6511;49.746;6.094;2022-09-17T12:19:21;14.00;99.90
12887;DHT22;6511;49.746;6.094;2022-09-17T12:24:22;13.50;99.90
12887;DHT22;6511;49.746;6.094;2022-09-17T12:40:38;14.50;99.90
12887;DHT22;6511;49.746;6.094;2022-09-17T12:48:34;14.00;99.90
12887;DHT22;6511;49.746;6.094;2022-09-17T12:51:40;13.90;99.90
12887;DHT22;6511;49.746;6.094;2022-09-17T12:54:09;14.10;99.90
12887;DHT22;6511;49.746;6.094;2022-09-17T12:59:18;13.90;99.90
12887;DHT22;6511;49.746;6.094;2022-09-17T13:02:07;13.90;99.90
12887;DHT22;6511;49.746;6.094;2022-09-17T13:04:53;13.80;99.90
12887;DHT22;6511;49.746;6.094;2022-09-17T13:10:40;13.60;99.90
12887;DHT22;6511;49.746;6.094;2022-09-17T13:13:42;13.40;99.90
12887;DHT22;6511;49.746;6.094;2022-09-17T13:19:14;12.70;99.90
12887;DHT22;6511;49.746;6.094;2022-09-17T13:21:52;12.60;99.90
12887;DHT22;6511;49.746;6.094;2022-09-17T13:24:23;12.40;99.90
12887;DHT22;6511;49.746;6.094;2022-09-17T13:26:51;12.60;99.90
12887;DHT22;6511;49.746;6.094;2022-09-17T13:34:53;12.90;99.90
12887;DHT22;6511;49.746;6.094;2022-09-17T13:37:19;13.10;99.90
12887;DHT22;6511;49.746;6.094;2022-09-17T13:39:48;12.90;99.90
12887;DHT22;6511;49.746;6.094;2022-09-17T13:42:27;12.80;99.90
12887;DHT22;6511;49.746;6.094;2022-09-17T13:45:13;12.80;99.90
12887;DHT22;6511;49.746;6.094;2022-09-17T13:55:50;13.30;99.90
12887;DHT22;6511;49.746;6.094;2022-09-17T14:22:00;12.40;99.90
12887;DHT22;6511;49.746;6.094;2022-09-17T14:38:06;12.60;99.90
12887;DHT22;6511;49.746;6.094;2022-09-17T14:40:34;11.60;99.90
12887;DHT22;6511;49.746;6.094;2022-09-17T14:43:01;11.70;99.90
12887;DHT22;6511;49.746;6.094;2022-09-17T14:45:35;11.60;99.90
12887;DHT22;6511;49.746;6.094;2022-09-17T14:48:28;11.70;99.90
12887;DHT22;6511;49.746;6.094;2022-09-17T14:53:42;11.70;99.90
12887;DHT22;6511;49.746;6.094;2022-09-17T14:56:11;11.80;99.90
12887;DHT22;6511;49.746;6.094;2022-09-17T14:58:45;11.80;99.90
12887;DHT22;6511;49.746;6.094;2022-09-17T15:01:30;11.90;99.90
12887;DHT22;6511;49.746;6.094;2022-09-17T15:06:38;12.00;99.90
12887;DHT22;6511;49.746;6.094;2022-09-17T15:09:04;12.20;99.90
12887;DHT22;6511;49.746;6.094;2022-09-17T15:11:32;12.10;99.90
12887;DHT22;6511;49.746;6.094;2022-09-17T15:14:05;12.20;99.90
12887;DHT22;6511;49.746;6.094;2022-09-17T15:16:32;12.20;99.90
12887;DHT22;6511;49.746;6.094;2022-09-17T15:19:00;12.20;99.90
12887;DHT22;6511;49.746;6.094;2022-09-17T15:21:33;12.30;99.90
12887;DHT22;6511;49.746;6.094;2022-09-17T15:26:59;12.30;99.90
12887;DHT22;6511;49.746;6.094;2022-09-17T15:29:28;12.20;99.90
12887;DHT22;6511;49.746;6.094;2022-09-17T15:31:55;12.30;99.90
12887;DHT22;6511;49.746;6.094;2022-09-17T15:34:21;12.40;99.90
12887;DHT22;6511;49.746;6.094;2022-09-17T15:37:16;12.30;99.90
12887;DHT22;6511;49.746;6.094;2022-09-17T15:39:47;12.40;99.90
12887;DHT22;6511;49.746;6.094;2022-09-17T15:42:29;12.40;99.90
12887;DHT22;6511;49.746;6.094;2022-09-17T15:47:56;12.30;99.90
12887;DHT22;6511;49.746;6.094;2022-09-17T15:50:33;12.40;99.90
12887;DHT22;6511;49.746;6.094;2022-09-17T15:55:37;12.50;99.90
12887;DHT22;6511;49.746;6.094;2022-09-17T15:58:29;12.70;99.90
12887;DHT22;6511;49.746;6.094;2022-09-17T16:08:58;12.80;99.90
12887;DHT22;6511;49.746;6.094;2022-09-17T16:11:27;12.70;99.90
12887;DHT22;6511;49.746;6.094;2022-09-17T16:13:55;12.70;99.90
12887;DHT22;6511;49.746;6.094;2022-09-17T16:16:41;12.60;99.90
12887;DHT22;6511;49.746;6.094;2022-09-17T16:19:08;12.70;99.90
12887;DHT22;6511;49.746;6.094;2022-09-17T16:21:34;12.60;99.90
12887;DHT22;6511;49.746;6.094;2022-09-17T16:24:00;12.60;99.90
12887;DHT22;6511;49.746;6.094;2022-09-17T16:26:34;12.50;99.90
12887;DHT22;6511;49.746;6.094;2022-09-17T16:29:14;12.50;99.90
12887;DHT22;6511;49.746;6.094;2022-09-17T16:31:41;12.60;99.90
12887;DHT22;6511;49.746;6.094;2022-09-17T16:34:09;12.70;99.90
12887;DHT22;6511;49.746;6.094;2022-09-17T16:36:35;12.70;99.90
12887;DHT22;6511;49.746;6.094;2022-09-17T16:39:01;12.70;99.90
12887;DHT22;6511;49.746;6.094;2022-09-17T16:41:26;12.70;99.90
12887;DHT22;6511;49.746;6.094;2022-09-17T16:43:52;12.60;99.90
12887;DHT22;6511;49.746;6.094;2022-09-17T16:46:18;12.60;99.90
12887;DHT22;6511;49.746;6.094;2022-09-17T16:48:43;12.60;99.90
12887;DHT22;6511;49.746;6.094;2022-09-17T16:51:11;12.50;99.90
12887;DHT22;6511;49.746;6.094;2022-09-17T16:53:38;12.40;99.90
12887;DHT22;6511;49.746;6.094;2022-09-17T16:56:12;12.40;99.90
12887;DHT22;6511;49.746;6.094;2022-09-17T16:58:38;12.30;99.90
12887;DHT22;6511;49.746;6.094;2022-09-17T17:01:17;12.30;99.90
12887;DHT22;6511;49.746;6.094;2022-09-17T17:03:43;12.20;99.90
12887;DHT22;6511;49.746;6.094;2022-09-17T17:06:20;12.00;99.90
12887;DHT22;6511;49.746;6.094;2022-09-17T17:08:46;12.00;99.90
12887;DHT22;6511;49.746;6.094;2022-09-17T17:11:12;11.90;99.90
12887;DHT22;6511;49.746;6.094;2022-09-17T17:13:40;11.90;99.90
12887;DHT22;6511;49.746;6.094;2022-09-17T17:16:12;12.00;99.90
12887;DHT22;6511;49.746;6.094;2022-09-17T17:18:41;12.00;99.90
12887;DHT22;6511;49.746;6.094;2022-09-17T17:21:11;11.90;99.90
12887;DHT22;6511;49.746;6.094;2022-09-17T17:23:40;12.00;99.90
12887;DHT22;6511;49.746;6.094;2022-09-17T17:26:07;12.00;99.90
12887;DHT22;6511;49.746;6.094;2022-09-17T17:28:34;12.00;99.90
12887;DHT22;6511;49.746;6.094;2022-09-17T17:31:01;12.10;99.90
12887;DHT22;6511;49.746;6.094;2022-09-17T17:33:27;12.10;99.90
12887;DHT22;6511;49.746;6.094;2022-09-17T17:35:53;12.00;99.90
12887;DHT22;6511;49.746;6.094;2022-09-17T17:38:19;12.10;99.90
12887;DHT22;6511;49.746;6.094;2022-09-17T17:40:45;12.10;99.90
12887;DHT22;6511;49.746;6.094;2022-09-17T17:43:11;12.00;99.90
12887;DHT22;6511;49.746;6.094;2022-09-17T17:45:38;12.10;99.90
12887;DHT22;6511;49.746;6.094;2022-09-17T17:48:04;12.00;99.90
12887;DHT22;6511;49.746;6.094;2022-09-17T17:50:30;11.70;99.90
12887;DHT22;6511;49.746;6.094;2022-09-17T17:52:56;11.60;99.90
12887;DHT22;6511;49.746;6.094;2022-09-17T17:55:22;11.60;99.90
12887;DHT22;6511;49.746;6.094;2022-09-17T17:57:52;11.60;99.90
12887;DHT22;6511;49.746;6.094;2022-09-17T18:00:18;11.40;99.90
12887;DHT22;6511;49.746;6.094;2022-09-17T18:02:46;11.40;99.90
12887;DHT22;6511;49.746;6.094;2022-09-17T18:05:14;11.50;99.90
12887;DHT22;6511;49.746;6.094;2022-09-17T18:07:46;11.40;99.90
12887;DHT22;6511;49.746;6.094;2022-09-17T18:10:25;11.40;99.90
12887;DHT22;6511;49.746;6.094;2022-09-17T18:12:52;11.30;99.90
12887;DHT22;6511;49.746;6.094;2022-09-17T18:15:18;11.30;99.90
12887;DHT22;6511;49.746;6.094;2022-09-17T18:17:45;11.30;99.90
12887;DHT22;6511;49.746;6.094;2022-09-17T18:20:12;11.20;99.90
12887;DHT22;6511;49.746;6.094;2022-09-17T18:22:39;11.30;99.90
12887;DHT22;6511;49.746;6.094;2022-09-17T18:25:05;11.30;99.90
12887;DHT22;6511;49.746;6.094;2022-09-17T18:27:31;11.20;99.90
12887;DHT22;6511;49.746;6.094;2022-09-17T18:29:57;11.10;99.90
12887;DHT22;6511;49.746;6.094;2022-09-17T18:32:22;11.20;99.90
12887;DHT22;6511;49.746;6.094;2022-09-17T18:34:48;11.20;99.90
12887;DHT22;6511;49.746;6.094;2022-09-17T18:37:23;11.30;99.90
12887;DHT22;6511;49.746;6.094;2022-09-17T18:39:48;11.20;99.90
12887;DHT22;6511;49.746;6.094;2022-09-17T18:42:15;11.10;99.90
12887;DHT22;6511;49.746;6.094;2022-09-17T18:44:40;11.10;99.90
12887;DHT22;6511;49.746;6.094;2022-09-17T18:47:06;11.10;99.90
12887;DHT22;6511;49.746;6.094;2022-09-17T18:49:32;11.10;99.90
12887;DHT22;6511;49.746;6.094;2022-09-17T18:51:58;11.20;99.90
12887;DHT22;6511;49.746;6.094;2022-09-17T18:54:23;11.20;99.90
12887;DHT22;6511;49.746;6.094;2022-09-17T18:56:49;11.20;99.90
12887;DHT22;6511;49.746;6.094;2022-09-17T18:59:15;11.00;99.90
12887;DHT22;6511;49.746;6.094;2022-09-17T19:01:41;11.10;99.90
12887;DHT22;6511;49.746;6.094;2022-09-17T19:04:07;11.00;99.90
12887;DHT22;6511;49.746;6.094;2022-09-17T19:06:33;11.10;99.90
12887;DHT22;6511;49.746;6.094;2022-09-17T19:09:08;11.20;99.90
12887;DHT22;6511;49.746;6.094;2022-09-17T19:19:10;11.00;99.90
12887;DHT22;6511;49.746;6.094;2022-09-17T19:21:35;11.10;99.90
12887;DHT22;6511;49.746;6.094;2022-09-17T19:24:01;11.20;99.90
12887;DHT22;6511;49.746;6.094;2022-09-17T19:26:28;11.30;99.90
12887;DHT22;6511;49.746;6.094;2022-09-17T19:28:56;11.30;99.90
12887;DHT22;6511;49.746;6.094;2022-09-17T19:31:23;11.40;99.90
12887;DHT22;6511;49.746;6.094;2022-09-17T19:33:49;11.30;99.90
12887;DHT22;6511;49.746;6.094;2022-09-17T19:36:17;11.30;99.90
12887;DHT22;6511;49.746;6.094;2022-09-17T19:38:44;11.40;99.90
12887;DHT22;6511;49.746;6.094;2022-09-17T19:41:15;11.50;99.90
12887;DHT22;6511;49.746;6.094;2022-09-17T19:43:41;11.50;99.90
12887;DHT22;6511;49.746;6.094;2022-09-17T19:46:11;11.60;99.90
12887;DHT22;6511;49.746;6.094;2022-09-17T19:48:48;11.50;99.90
12887;DHT22;6511;49.746;6.094;2022-09-17T19:51:15;11.60;99.90
12887;DHT22;6511;49.746;6.094;2022-09-17T19:53:41;11.50;99.90
12887;DHT22;6511;49.746;6.094;2022-09-17T19:56:11;11.50;99.90
12887;DHT22;6511;49.746;6.094;2022-09-17T19:58:37;11.50;99.90
12887;DHT22;6511;49.746;6.094;2022-09-17T20:01:03;11.50;99.90
12887;DHT22;6511;49.746;6.094;2022-09-17T20:03:31;11.60;99.90
12887;DHT22;6511;49.746;6.094;2022-09-17T20:06:06;11.50;99.90
12887;DHT22;6511;49.746;6.094;2022-09-17T20:08:32;11.60;99.90